KBYI

Burley Municipal Airport

Burley, Idaho, USA
KBYI 261120Z 2612/2712 07007KT P6SM SKC
Issued Valid From Valid To
Apr-26 @ 11:20 UTC
(2 hours ago)
Apr-26 @ 12:00 UTC
(2 hours ago)
Apr-27 @ 12:00 UTC
(in 22 hours)
Apr-26 @ 12:00 to Apr-27 @ 12:00
KBYI 261120Z 2612/2712 07007KT P6SM SKC
Wind Visibility Clouds
70° at 7 knots Greater than 6 miles
  • Clear skies
KBYI 261120Z 2612/2712 07007KT P6SM SKC
Issued Apr-26 @ 11:20 UTC
(2 hours ago)
Valid From Apr-26 @ 12:00 UTC
(2 hours ago)
Valid To Apr-27 @ 12:00 UTC
(in 22 hours)
Apr-26 @ 12:00 - Apr-27 @ 12:00
Wind Visibility
70° at 7 knots Greater than 6 miles
Clouds
  • Clear skies